CST,Max TemperatureF,Mean TemperatureF,Min TemperatureF,Max Dew PointF,MeanDew PointF,Min DewpointF,Max Humidity, Mean Humidity, Min Humidity, Max Sea Level PressureIn, Mean Sea Level PressureIn, Min Sea Level PressureIn, Max VisibilityMiles, Mean VisibilityMiles, Min VisibilityMiles, Max Wind SpeedMPH, Mean Wind SpeedMPH, Max Gust SpeedMPH,PrecipitationIn, CloudCover, Events, WindDirDegrees
2012-9-1,87,80,72,77,75,72,94,73,62,29.94,29.90,29.84,9,7,6,12,6,,0.00,5,,349
2012-9-2,84,78,73,76,74,73,94,81,66,29.97,29.91,29.85,9,7,4,9,5,,0.02,6,Rain-Thunderstorm,331
2012-9-3,87,79,71,75,74,70,100,86,61,29.99,29.94,29.89,9,7,4,10,5,,0.20,5,Rain-Thunderstorm,304
2012-9-4,88,80,72,75,74,71,96,79,58,29.97,29.90,29.84,9,7,6,12,5,,0.00,6,,325
2012-9-5,85,78,71,77,75,71,94,76,65,29.94,29.88,29.83,9,7,6,9,5,,0.00,4,,30
2012-9-6,86,80,75,77,75,73,100,77,67,29.94,29.87,29.81,9,7,6,8,4,,0.00,5,Rain-Thunderstorm,34
2012-9-7,86,79,72,76,74,72,94,75,64,29.95,29.86,29.74,9,7,6,9,6,,0.00,6,,39
2012-9-8,88,81,74,85,76,72,94,76,61,29.91,29.86,29.82,9,7,6,10,5,,0.00,5,,47
2012-9-9,87,81,75,77,75,72,89,73,63,29.92,29.88,29.84,9,7,6,10,6,,0.00,6,,324
2012-9-10,88,80,73,77,73,68,89,76,61,29.96,29.91,29.86,9,7,4,16,5,,0.00,6,Thunderstorm,69
2012-9-11,81,76,70,75,73,70,100,88,75,29.99,29.91,29.84,9,7,4,18,6,,0.35,5,Rain-Thunderstorm,261
2012-9-12,88,80,72,77,73,70,88,72,59,29.91,29.86,29.81,9,7,6,13,6,,0.00,5,,9
2012-9-13,86,78,71,75,74,70,85,75,68,29.90,29.84,29.78,9,7,6,10,7,,0.00,6,,48
2012-9-14,84,78,72,77,74,72,100,86,67,29.90,29.86,29.81,9,7,5,13,6,,0.04,6,Rain,292
2012-9-15,88,80,72,78,76,72,94,78,65,29.93,29.87,29.81,9,7,6,14,7,,0.00,4,,333
2012-9-16,88,82,75,79,76,73,89,75,60,29.94,29.88,29.81,9,7,6,13,7,,0.00,4,Tornado,337
2012-9-17,84,78,73,77,75,70,89,83,66,29.95,29.90,29.81,9,7,6,13,5,,0.02,6,Rain-Thunderstorm,171
2012-9-18,84,78,71,75,73,70,94,80,70,29.99,29.91,29.77,9,7,6,17,6,,0.00,6,,101
2012-9-19,86,78,70,75,74,70,88,72,62,29.98,29.90,29.82,9,7,6,12,7,,0.00,2,,57
2012-9-20,86,78,71,75,74,73,79,68,60,29.88,29.83,29.76,9,7,6,10,6,,0.00,3,,26
2012-9-21,89,80,71,77,74,72,79,70,57,29.84,29.80,29.75,9,7,6,18,7,,0.00,5,,34
2012-9-22,84,77,70,73,72,70,78,69,59,29.89,29.84,29.79,9,7,6,6,4,,0.00,5,,34
2012-9-23,86,80,74,77,76,75,84,72,68,29.91,29.87,29.82,9,7,6,10,7,,0.00,6,,6
2012-9-24,87,80,73,75,74,72,90,82,66,29.93,29.88,29.85,9,7,6,21,7,,0.00,5,Rain,296
2012-9-25,86,78,71,77,74,72,89,73,62,29.91,29.86,29.79,9,7,6,14,6,,0.00,6,,357
2012-9-26,86,79,72,76,74,72,94,75,64,29.91,29.85,29.78,9,7,6,10,5,,0.00,6,,319
2012-9-27,87,80,72,77,75,72,89,75,66,29.90,29.85,29.78,9,7,6,9,5,,0.00,3,,9
2012-9-28,87,80,73,75,74,72,94,78,65,29.89,29.84,29.78,9,7,6,13,6,,0.00,5,Thunderstorm,321
2012-9-29,88,80,72,77,75,73,89,78,66,29.88,29.81,29.76,9,7,6,13,6,,0.00,5,Rain-Thunderstorm,317
2012-9-30,88,80,72,76,73,72,91,72,60,29.86,29.81,29.74,9,7,6,8,4,,0.03,7,Rain,102